Time;durP1;ratioP1;P1;durP2;ratioP2;P2;SDS_P1;SDS_P2;PMS_P1;PMS_P2;Temp;Humidity;BMP_temperature;BMP_pressure;BME280_temperature;BME280_humidity;BME280_pressure;Samples;Min_cycle;Max_cycle;Signal;HPM_P1;HPM_P2
2022/10/29 00:00:25;;;;;;;26.00;17.90;;;;;;;14.85;65.28;99721.80;224054;1237;139608;-65
2022/10/29 00:05:56;;;;;;;25.70;18.00;;;;;;;14.82;65.11;99722.02;224246;1237;139347;-64
2022/10/29 00:11:20;;;;;;;29.70;17.40;;;;;;;14.71;64.94;99725.41;223985;1237;139645;-65
2022/10/29 00:16:35;;;;;;;24.90;17.20;;;;;;;14.59;64.94;99724.83;224173;1236;140480;-67
2022/10/29 00:21:39;;;;;;;21.60;15.60;;;;;;;14.52;65.08;99717.05;223955;1237;139685;-66
2022/10/29 00:26:43;;;;;;;23.50;16.30;;;;;;;14.51;65.10;99719.30;224197;1237;140433;-65
2022/10/29 00:31:49;;;;;;;25.00;16.40;;;;;;;14.49;65.11;99717.47;224186;1237;139856;-64
2022/10/29 00:36:54;;;;;;;24.60;16.40;;;;;;;14.45;65.15;99711.23;223911;1237;139664;-65
2022/10/29 00:41:59;;;;;;;25.70;17.80;;;;;;;14.40;65.16;99706.91;224021;1230;139132;-65
2022/10/29 00:47:12;;;;;;;25.20;17.50;;;;;;;14.38;65.34;99698.71;224217;1237;139121;-65
2022/10/29 00:52:18;;;;;;;23.10;16.60;;;;;;;14.36;65.24;99695.80;224442;1236;139459;-63
2022/10/29 00:57:27;;;;;;;22.30;15.90;;;;;;;14.32;65.26;99697.66;226582;1240;140236;-62
2022/10/29 01:02:32;;;;;;;25.30;15.00;;;;;;;14.35;65.40;99692.48;227305;1233;140349;-65
2022/10/29 01:07:36;;;;;;;21.70;15.50;;;;;;;14.40;65.43;99691.02;226200;1240;139684;-63
2022/10/29 01:12:58;;;;;;;24.40;16.30;;;;;;;14.47;65.57;99687.18;226061;1243;139139;-64
2022/10/29 01:18:21;;;;;;;22.90;16.20;;;;;;;14.49;65.25;99690.48;227152;1234;139673;-66
2022/10/29 01:23:36;;;;;;;19.80;15.50;;;;;;;14.46;65.20;99686.90;226051;1242;139797;-64
2022/10/29 01:29:01;;;;;;;24.40;15.90;;;;;;;14.45;65.30;99675.38;226317;1241;139230;-68
2022/10/29 01:34:18;;;;;;;23.80;15.70;;;;;;;14.45;65.17;99669.30;226109;1245;139521;-66
2022/10/29 01:39:36;;;;;;;23.50;15.00;;;;;;;14.51;65.24;99662.87;226207;1240;140407;-66
2022/10/29 01:44:51;;;;;;;22.20;16.40;;;;;;;14.55;65.07;99660.81;226286;1243;139780;-68
2022/10/29 01:50:00;;;;;;;24.30;15.90;;;;;;;14.51;64.98;99660.20;227234;1230;139360;-67
2022/10/29 01:55:04;;;;;;;22.80;15.00;;;;;;;14.50;65.03;99657.42;226311;1243;139749;-66
2022/10/29 02:00:12;;;;;;;25.50;15.50;;;;;;;14.41;64.70;99656.36;226551;1244;139988;-63
2022/10/29 02:05:21;;;;;;;20.90;14.60;;;;;;;14.32;64.80;99655.34;226300;1240;139255;-65
2022/10/29 02:10:31;;;;;;;23.60;14.10;;;;;;;14.31;64.91;99643.45;226308;1242;139092;-67
2022/10/29 02:15:48;;;;;;;21.90;13.40;;;;;;;14.36;65.04;99634.92;227354;1237;139891;-63
2022/10/29 02:20:51;;;;;;;16.30;13.10;;;;;;;14.47;65.23;99618.98;226380;1244;140153;-64
2022/10/29 02:25:54;;;;;;;21.50;14.50;;;;;;;14.51;65.03;99619.15;226012;1244;139684;-65
2022/10/29 02:30:57;;;;;;;19.10;13.40;;;;;;;14.50;64.99;99626.13;226020;1244;139686;-63
2022/10/29 02:35:59;;;;;;;19.80;14.00;;;;;;;14.48;64.95;99627.86;226049;1242;140797;-62
2022/10/29 02:41:03;;;;;;;18.50;13.00;;;;;;;14.45;65.02;99624.15;226159;1242;139918;-63
2022/10/29 02:46:18;;;;;;;15.10;11.50;;;;;;;14.43;64.92;99623.89;227350;1235;140535;-61
2022/10/29 02:51:21;;;;;;;19.20;11.70;;;;;;;14.47;65.00;99623.09;227448;1230;140356;-64
2022/10/29 02:56:24;;;;;;;73.40;53.10;;;;;;;14.55;65.20;99624.88;226034;1240;139896;-67
2022/10/29 03:01:30;;;;;;;16.40;11.90;;;;;;;14.59;65.06;99622.84;227161;1234;141088;-65
2022/10/29 03:06:33;;;;;;;16.90;11.70;;;;;;;14.62;65.04;99618.70;225906;1242;139444;-68
2022/10/29 03:11:36;;;;;;;16.90;10.90;;;;;;;14.61;64.92;99616.11;226010;1245;140956;-72
2022/10/29 03:16:39;;;;;;;81.80;58.90;;;;;;;14.58;64.75;99618.45;225855;1244;151840;-67
2022/10/29 03:21:42;;;;;;;16.60;12.10;;;;;;;14.54;64.68;99623.38;226225;1244;139455;-65
2022/10/29 03:26:44;;;;;;;17.40;10.50;;;;;;;14.54;64.64;99614.81;227448;1229;140155;-64
2022/10/29 03:31:47;;;;;;;16.50;11.30;;;;;;;14.53;64.60;99615.38;226171;1248;140238;-64
2022/10/29 03:36:50;;;;;;;18.40;11.50;;;;;;;14.52;64.61;99614.38;226148;1241;139606;-64
2022/10/29 03:41:53;;;;;;;15.40;10.70;;;;;;;14.51;64.56;99619.79;226086;1243;139400;-62
2022/10/29 03:46:56;;;;;;;46.20;33.70;;;;;;;14.47;64.61;99614.56;226000;1237;139753;-62
2022/10/29 03:51:59;;;;;;;16.70;11.50;;;;;;;14.43;64.61;99602.99;227269;1230;139911;-63
2022/10/29 03:57:02;;;;;;;15.80;10.60;;;;;;;14.41;64.78;99604.90;225979;1238;139157;-64
2022/10/29 04:02:05;;;;;;;18.60;10.70;;;;;;;14.37;64.47;99600.19;225995;1244;140847;-63
2022/10/29 04:07:10;;;;;;;17.60;11.40;;;;;;;14.30;64.15;99591.23;227344;1228;140011;-63
2022/10/29 04:12:13;;;;;;;17.50;10.80;;;;;;;14.27;64.44;99599.69;226234;1243;140082;-65
2022/10/29 04:17:16;;;;;;;16.80;10.80;;;;;;;14.25;64.44;99612.09;227474;1231;139410;-65
2022/10/29 04:22:19;;;;;;;16.10;10.10;;;;;;;14.28;64.69;99622.45;226252;1243;139612;-62
2022/10/29 04:27:42;;;;;;;13.80;10.60;;;;;;;14.34;64.75;99622.71;226246;1235;140100;-62
2022/10/29 04:33:05;;;;;;;21.40;9.90;;;;;;;14.37;64.54;99617.55;227502;1230;139911;-61
2022/10/29 04:38:11;;;;;;;18.20;9.80;;;;;;;14.36;64.56;99611.89;226197;1241;139262;-63
2022/10/29 04:43:15;;;;;;;14.00;9.90;;;;;;;14.36;64.59;99607.73;226294;1234;140364;-63
2022/10/29 04:48:18;;;;;;;14.30;9.30;;;;;;;14.40;64.46;99616.23;227448;1234;139906;-69
2022/10/29 04:53:21;;;;;;;15.50;9.90;;;;;;;14.42;64.42;99617.51;227461;1240;139548;-67
2022/10/29 04:58:24;;;;;;;13.90;9.60;;;;;;;14.41;64.43;99620.64;226428;1240;139257;-65
2022/10/29 05:03:27;;;;;;;16.00;9.90;;;;;;;14.38;64.29;99619.60;226427;1245;139500;-66
2022/10/29 05:08:30;;;;;;;14.30;9.40;;;;;;;14.33;64.25;99619.98;226449;1242;139116;-70
2022/10/29 05:13:33;;;;;;;12.50;9.00;;;;;;;14.32;64.60;99618.04;227369;1234;139098;-64
2022/10/29 05:18:37;;;;;;;15.60;9.10;;;;;;;14.37;64.64;99624.98;226213;1241;139036;-69
2022/10/29 05:23:40;;;;;;;13.70;9.00;;;;;;;14.38;64.52;99622.77;226254;1243;139251;-72
2022/10/29 05:28:43;;;;;;;14.90;8.60;;;;;;;14.41;64.52;99617.08;226214;1243;139990;-66
2022/10/29 05:33:46;;;;;;;13.60;8.80;;;;;;;14.48;64.57;99619.63;226247;1240;139674;-69
2022/10/29 05:38:54;;;;;;;12.70;8.40;;;;;;;14.50;64.60;99615.05;226332;1237;139826;-62
2022/10/29 05:43:57;;;;;;;15.20;8.60;;;;;;;14.46;64.39;99606.23;225973;1237;139699;-63
2022/10/29 05:49:00;;;;;;;10.00;8.00;;;;;;;14.40;64.56;99603.77;227137;1228;139900;-61
2022/10/29 05:54:03;;;;;;;13.50;8.30;;;;;;;14.35;64.44;99605.55;226359;1238;139063;-67
2022/10/29 05:59:07;;;;;;;10.70;7.60;;;;;;;14.32;64.58;99612.91;226246;1242;138982;-63
2022/10/29 06:04:10;;;;;;;11.80;7.30;;;;;;;14.36;64.63;99612.99;226200;1244;141136;-63
2022/10/29 06:09:13;;;;;;;10.70;7.70;;;;;;;14.41;64.57;99621.52;226244;1241;140386;-62
2022/10/29 06:14:16;;;;;;;12.10;8.40;;;;;;;14.42;64.61;99643.06;226232;1241;140414;-62
2022/10/29 06:19:19;;;;;;;12.20;7.90;;;;;;;14.42;64.55;99633.77;226231;1244;139613;-64
2022/10/29 06:24:22;;;;;;;15.80;9.00;;;;;;;14.42;64.57;99635.88;226349;1236;138990;-67
2022/10/29 06:29:25;;;;;;;15.90;8.80;;;;;;;14.48;64.61;99631.61;226236;1242;139248;-61
2022/10/29 06:34:27;;;;;;;15.30;8.40;;;;;;;14.49;64.47;99636.92;227335;1234;140312;-64
2022/10/29 06:39:31;;;;;;;16.00;8.70;;;;;;;14.48;64.45;99642.89;226306;1241;139052;-63
2022/10/29 06:44:34;;;;;;;15.80;8.40;;;;;;;14.48;64.48;99649.28;227344;1235;140399;-63
2022/10/29 06:49:37;;;;;;;15.40;8.60;;;;;;;14.53;64.38;99654.17;227164;1236;140387;-62
2022/10/29 06:54:39;;;;;;;18.10;8.80;;;;;;;14.58;64.53;99647.16;227079;1235;139058;-65
2022/10/29 06:59:43;;;;;;;12.20;6.20;;;;;;;14.62;64.48;99666.92;227236;1237;140255;-65
2022/10/29 07:04:45;;;;;;;16.40;9.00;;;;;;;14.73;64.79;99665.83;227288;1234;139236;-63
2022/10/29 07:09:48;;;;;;;21.50;9.50;;;;;;;14.83;64.86;99661.86;227240;1236;139322;-63
2022/10/29 07:14:55;;;;;;;14.30;8.20;;;;;;;14.92;64.53;99665.77;226179;1234;138653;-70
2022/10/29 07:20:02;;;;;;;12.00;8.40;;;;;;;15.00;64.58;99682.70;227163;1231;139160;-68
2022/10/29 07:25:05;;;;;;;12.60;8.40;;;;;;;15.14;64.48;99689.56;226221;1241;139471;-71
2022/10/29 07:30:08;;;;;;;18.00;10.50;;;;;;;15.26;64.33;99695.31;226143;1240;140000;-69
2022/10/29 07:35:11;;;;;;;21.30;10.50;;;;;;;15.37;64.47;99695.08;226129;1241;139413;-65
2022/10/29 07:40:14;;;;;;;16.70;10.10;;;;;;;15.44;64.15;99689.09;226092;1243;139650;-65
2022/10/29 07:45:17;;;;;;;16.30;10.30;;;;;;;15.44;63.94;99689.38;226204;1241;139134;-66
2022/10/29 07:50:20;;;;;;;15.90;9.70;;;;;;;15.47;64.13;99687.56;227318;1230;139588;-64
2022/10/29 07:55:23;;;;;;;15.20;10.00;;;;;;;15.45;63.82;99698.11;227318;1238;139360;-64
2022/10/29 08:00:31;;;;;;;18.10;9.70;;;;;;;15.45;63.81;99700.09;226177;1242;141857;-65
2022/10/29 08:05:34;;;;;;;14.20;9.10;;;;;;;15.48;63.78;99705.59;227381;1234;139253;-65
2022/10/29 08:10:37;;;;;;;13.50;9.00;;;;;;;15.60;63.91;99710.45;226078;1245;140668;-67
2022/10/29 08:15:40;;;;;;;12.90;9.80;;;;;;;15.71;63.79;99708.91;227190;1229;139402;-68
2022/10/29 08:20:44;;;;;;;15.60;9.60;;;;;;;15.88;63.92;99717.90;226291;1243;139672;-66
2022/10/29 08:25:47;;;;;;;14.00;9.70;;;;;;;16.03;63.78;99717.14;226186;1230;140359;-65
2022/10/29 08:30:50;;;;;;;13.30;8.50;;;;;;;16.16;63.65;99715.85;227350;1241;140340;-67
2022/10/29 08:35:53;;;;;;;13.50;9.30;;;;;;;16.21;63.39;99718.34;227366;1231;139244;-62
2022/10/29 08:41:02;;;;;;;15.20;9.30;;;;;;;16.29;63.49;99721.50;226178;1245;139392;-62
2022/10/29 08:46:19;;;;;;;16.50;8.50;;;;;;;16.40;63.53;99719.45;226154;1236;139217;-63
2022/10/29 08:51:27;;;;;;;11.10;6.70;;;;;;;16.55;63.61;99717.20;227289;1231;139182;-66
2022/10/29 08:56:35;;;;;;;15.40;6.90;;;;;;;16.85;64.20;99710.76;226044;1243;139724;-67
2022/10/29 09:01:38;;;;;;;10.60;6.30;;;;;;;17.18;63.64;99700.90;226221;1240;139669;-69
2022/10/29 09:07:12;;;;;;;11.50;6.60;;;;;;;17.45;63.65;99693.16;226188;1249;139710;-66
2022/10/29 09:12:45;;;;;;;9.60;5.70;;;;;;;17.78;63.24;99697.38;227195;1236;139042;-67
2022/10/29 09:18:13;;;;;;;10.00;5.10;;;;;;;17.92;62.40;99698.77;226070;1243;139714;-69
2022/10/29 09:23:46;;;;;;;6.30;4.50;;;;;;;18.00;62.03;99698.60;227285;1234;139218;-66
2022/10/29 09:29:14;;;;;;;9.70;4.90;;;;;;;18.07;61.61;99691.05;226191;1237;140545;-64
2022/10/29 09:34:29;;;;;;;9.90;4.90;;;;;;;18.10;60.99;99686.47;226188;1242;139259;-67
2022/10/29 09:39:34;;;;;;;;;;;;;;;18.13;60.84;99682.47;226340;1243;140343;-72
2022/10/29 09:44:51;;;;;;;9.20;5.10;;;;;;;18.12;60.56;99682.73;226338;1240;125294;-66
2022/10/29 09:50:03;;;;;;;10.60;5.40;;;;;;;18.16;60.49;99681.45;226157;1243;139030;-67
2022/10/29 09:55:23;;;;;;;12.10;5.80;;;;;;;18.23;60.37;99681.83;226160;1243;139663;-68
2022/10/29 10:00:28;;;;;;;11.00;5.80;;;;;;;18.27;60.15;99681.85;226193;1236;140039;-69
2022/10/29 10:06:10;;;;;;;11.60;6.00;;;;;;;18.27;60.19;99672.89;226095;1242;139126;-70
2022/10/29 10:11:18;;;;;;;14.70;6.50;;;;;;;18.31;60.16;99670.73;227190;1234;140535;-71
2022/10/29 10:16:27;;;;;;;12.90;6.00;;;;;;;18.35;59.82;99669.52;226105;1243;139908;-69
2022/10/29 10:21:32;;;;;;;11.00;5.20;;;;;;;18.34;59.72;99658.08;226163;1242;138649;-70
2022/10/29 10:26:42;;;;;;;11.00;5.10;;;;;;;18.35;59.86;99654.00;227245;1235;139672;-64
2022/10/29 10:31:49;;;;;;;7.10;4.80;;;;;;;18.41;59.72;99649.42;226102;1244;139376;-70
2022/10/29 10:37:02;;;;;;;7.30;4.90;;;;;;;18.47;59.61;99650.83;226200;1240;139688;-67
2022/10/29 10:42:21;;;;;;;9.50;5.20;;;;;;;18.59;59.66;99642.11;226283;1243;138771;-66
2022/10/29 10:47:27;;;;;;;11.10;5.00;;;;;;;18.74;59.46;99637.27;226161;1243;138979;-67
2022/10/29 10:52:40;;;;;;;13.00;5.10;;;;;;;18.86;59.20;99627.25;226057;1244;139354;-66
2022/10/29 10:57:53;;;;;;;13.80;5.40;;;;;;;18.96;58.97;99626.16;226210;1248;139380;-72
2022/10/29 11:03:16;;;;;;;7.60;4.80;;;;;;;19.02;58.71;99622.98;226267;1243;138993;-68
2022/10/29 11:08:42;;;;;;;10.60;5.00;;;;;;;19.04;58.57;99621.83;226162;1240;139442;-67
2022/10/29 11:13:47;;;;;;;10.10;5.30;;;;;;;19.02;58.30;99618.48;227054;1234;139000;-65
2022/10/29 11:19:06;;;;;;;9.50;5.00;;;;;;;19.01;58.30;99608.83;226070;1236;139505;-70
2022/10/29 11:24:22;;;;;;;12.00;5.00;;;;;;;19.02;58.29;99604.05;226142;1234;139051;-66
2022/10/29 11:29:40;;;;;;;8.10;5.10;;;;;;;19.03;58.25;99596.05;226060;1240;139343;-64
2022/10/29 11:34:54;;;;;;;10.70;5.20;;;;;;;19.11;58.30;99596.10;226336;1236;139530;-68
2022/10/29 11:40:03;;;;;;;11.90;5.60;;;;;;;19.23;58.37;99589.23;226257;1237;139174;-63
2022/10/29 11:45:15;;;;;;;11.70;5.10;;;;;;;19.38;58.26;99587.78;226032;1243;139938;-64
2022/10/29 11:50:31;;;;;;;9.90;4.70;;;;;;;19.51;58.06;99587.27;226975;1236;140672;-66
2022/10/29 11:55:50;;;;;;;10.70;5.00;;;;;;;19.62;57.93;99595.83;227177;1231;140439;-66
2022/10/29 12:01:19;;;;;;;11.10;5.00;;;;;;;19.73;57.75;99602.82;226236;1244;139817;-63
2022/10/29 12:06:53;;;;;;;14.30;5.40;;;;;;;19.81;57.28;99603.30;226367;1244;140014;-63
2022/10/29 12:12:11;;;;;;;13.40;5.20;;;;;;;19.86;57.27;99593.17;226095;1240;139692;-67
2022/10/29 12:17:40;;;;;;;13.50;5.10;;;;;;;19.92;57.08;99591.81;226118;1243;140573;-68
2022/10/29 12:22:54;;;;;;;10.50;4.70;;;;;;;19.99;56.98;99587.74;226120;1236;139495;-68
2022/10/29 12:28:43;;;;;;;16.10;5.40;;;;;;;20.08;56.85;99585.30;227258;1237;139244;-67
2022/10/29 12:34:04;;;;;;;10.90;4.60;;;;;;;20.14;56.61;99577.27;225977;1244;139640;-70
2022/10/29 12:39:17;;;;;;;10.40;4.70;;;;;;;20.19;56.63;99566.63;227315;1237;139341;-67
2022/10/29 12:44:34;;;;;;;13.60;5.50;;;;;;;20.25;56.41;99558.30;226124;1233;139356;-69
2022/10/29 12:49:55;;;;;;;13.90;5.60;;;;;;;20.23;56.14;99559.82;227113;1237;139267;-66
2022/10/29 12:54:59;;;;;;;12.70;5.00;;;;;;;20.21;56.22;99553.50;227254;1233;139482;-66
2022/10/29 13:00:24;;;;;;;16.60;5.20;;;;;;;20.21;56.14;99547.69;226271;1244;139526;-67
2022/10/29 13:05:40;;;;;;;9.50;5.00;;;;;;;20.25;56.08;99548.27;227307;1238;139392;-65
2022/10/29 13:10:48;;;;;;;10.80;5.20;;;;;;;20.31;56.09;99549.98;227288;1241;139497;-68
2022/10/29 13:16:01;;;;;;;12.40;5.60;;;;;;;20.41;56.03;99548.21;227251;1232;139065;-69
2022/10/29 13:21:04;;;;;;;9.60;4.80;;;;;;;20.46;55.83;99547.89;226237;1241;139459;-67
2022/10/29 13:26:08;;;;;;;17.70;5.70;;;;;;;20.45;55.68;99549.46;226077;1248;139588;-67
2022/10/29 13:31:11;;;;;;;11.10;5.20;;;;;;;20.40;55.60;99545.27;226176;1240;140034;-68
2022/10/29 13:36:14;;;;;;;11.40;5.50;;;;;;;20.37;55.76;99545.83;227247;1237;139484;-69
2022/10/29 13:41:19;;;;;;;10.30;5.00;;;;;;;20.33;55.56;99540.98;226051;1241;139731;-66
2022/10/29 13:46:35;;;;;;;11.70;5.10;;;;;;;20.32;55.70;99536.42;227190;1233;139436;-71
2022/10/29 13:51:48;;;;;;;7.30;4.70;;;;;;;20.29;55.68;99538.10;226324;1248;139320;-69
2022/10/29 13:57:20;;;;;;;9.00;5.10;;;;;;;20.27;55.68;99537.24;226334;1244;138445;-71
2022/10/29 14:02:35;;;;;;;9.50;5.00;;;;;;;20.25;55.71;99540.33;226335;1243;138851;-71
2022/10/29 14:08:17;;;;;;;17.00;5.40;;;;;;;20.23;55.71;99535.98;226400;1239;139963;-67
2022/10/29 14:13:23;;;;;;;8.50;4.50;;;;;;;20.21;55.70;99533.63;226197;1240;139103;-66
2022/10/29 14:18:27;;;;;;;15.70;4.70;;;;;;;20.21;55.82;99534.94;226195;1240;139383;-67
2022/10/29 14:23:31;;;;;;;11.80;4.80;;;;;;;20.23;55.86;99536.04;227514;1235;139291;-65
2022/10/29 14:28:34;;;;;;;15.90;7.00;;;;;;;20.23;55.77;99536.71;226342;1243;138869;-64
2022/10/29 14:33:39;;;;;;;8.30;4.50;;;;;;;20.22;55.69;99536.50;226192;1243;139091;-68
2022/10/29 14:39:04;;;;;;;9.20;4.80;;;;;;;20.19;55.69;99527.40;226432;1242;139204;-69
2022/10/29 14:44:16;;;;;;;9.30;4.60;;;;;;;20.17;55.73;99524.88;226240;1248;139460;-70
2022/10/29 14:49:22;;;;;;;11.80;5.00;;;;;;;20.14;55.72;99519.75;226440;1240;139270;-70
2022/10/29 14:54:29;;;;;;;11.50;4.80;;;;;;;20.12;55.80;99517.57;226346;1241;138751;-75
2022/10/29 14:59:34;;;;;;;15.00;5.30;;;;;;;20.13;55.83;99516.77;226780;1234;139631;-72
2022/10/29 15:04:55;;;;;;;10.40;5.10;;;;;;;20.14;55.92;99523.56;224559;1233;140041;-77
2022/10/29 15:10:09;;;;;;;12.70;5.10;;;;;;;20.13;55.95;99541.62;224412;1233;139160;-68
2022/10/29 15:15:16;;;;;;;10.50;4.70;;;;;;;20.08;56.03;99544.39;224807;1237;138971;-70
2022/10/29 15:20:25;;;;;;;11.90;5.20;;;;;;;19.98;56.03;99548.30;224482;1234;139509;-71
2022/10/29 15:25:34;;;;;;;15.90;5.50;;;;;;;19.93;56.12;99548.73;224229;1237;139220;-70
2022/10/29 15:30:38;;;;;;;15.20;5.90;;;;;;;19.89;56.09;99543.16;224182;1234;139387;-69
2022/10/29 15:35:54;;;;;;;9.50;5.20;;;;;;;19.83;56.14;99546.02;224392;1234;139044;-71
2022/10/29 15:41:08;;;;;;;14.30;5.20;;;;;;;19.76;56.15;99552.95;224421;1234;138577;-67
2022/10/29 15:46:29;;;;;;;9.70;5.20;;;;;;;19.70;56.26;99554.45;224683;1238;140072;-70
2022/10/29 15:51:36;;;;;;;11.80;6.10;;;;;;;19.66;56.43;99554.30;224388;1235;138693;-67
2022/10/29 15:56:39;;;;;;;12.90;6.70;;;;;;;19.58;56.39;99554.77;224721;1234;139036;-70
2022/10/29 16:01:43;;;;;;;14.90;6.60;;;;;;;19.42;56.22;99558.20;224735;1234;140185;-70
2022/10/29 16:06:48;;;;;;;15.10;6.70;;;;;;;19.26;56.40;99558.92;224393;1233;139162;-70
2022/10/29 16:11:52;;;;;;;76.20;50.20;;;;;;;19.12;56.54;99553.02;224811;1234;138755;-64
2022/10/29 16:16:55;;;;;;;13.80;7.50;;;;;;;18.99;56.77;99556.19;224362;1237;139366;-68
2022/10/29 16:21:59;;;;;;;12.80;7.60;;;;;;;18.85;57.03;99549.97;224417;1237;139835;-68
2022/10/29 16:27:22;;;;;;;15.60;8.60;;;;;;;18.71;57.02;99546.21;224827;1238;139822;-65
2022/10/29 16:32:26;;;;;;;16.80;8.30;;;;;;;18.55;57.26;99539.46;225850;1241;138649;-66
2022/10/29 16:37:29;;;;;;;17.30;9.00;;;;;;;18.43;57.49;99546.77;227551;1226;139334;-65
2022/10/29 16:42:35;;;;;;;13.70;8.20;;;;;;;18.36;57.55;99554.77;227592;1227;139109;-67
2022/10/29 16:47:38;;;;;;;18.00;8.70;;;;;;;18.30;57.58;99553.73;226541;1241;139176;-65
2022/10/29 16:52:41;;;;;;;14.50;8.50;;;;;;;18.22;57.64;99556.70;227430;1238;138777;-67
2022/10/29 16:57:44;;;;;;;14.50;8.50;;;;;;;18.17;57.58;99548.72;226238;1241;138979;-64
2022/10/29 17:02:48;;;;;;;15.30;9.30;;;;;;;18.10;57.70;99543.70;226583;1241;139421;-64
2022/10/29 17:07:54;;;;;;;14.70;9.00;;;;;;;18.04;57.79;99547.46;226571;1243;139410;-63
2022/10/29 17:12:58;;;;;;;15.60;9.70;;;;;;;17.97;57.86;99553.47;226187;1245;139089;-63
2022/10/29 17:18:01;;;;;;;16.40;9.20;;;;;;;17.88;57.99;99553.63;227477;1233;138781;-64
2022/10/29 17:23:04;;;;;;;17.30;9.40;;;;;;;17.87;57.96;99553.42;227487;1236;140827;-63
2022/10/29 17:28:08;;;;;;;18.70;9.80;;;;;;;17.84;58.28;99554.59;226353;1242;141132;-64
2022/10/29 17:33:11;;;;;;;16.10;10.40;;;;;;;17.85;58.32;99555.86;226471;1242;140174;-67
2022/10/29 17:38:14;;;;;;;19.00;11.20;;;;;;;17.82;58.41;99560.61;226347;1244;139337;-64
2022/10/29 17:43:17;;;;;;;19.40;11.90;;;;;;;17.77;58.45;99560.15;226314;1245;142432;-67
2022/10/29 17:48:21;;;;;;;15.90;10.60;;;;;;;17.71;58.68;99563.14;227396;1234;139648;-67
2022/10/29 17:53:29;;;;;;;20.00;11.30;;;;;;;17.64;58.62;99569.85;226572;1242;139893;-67
2022/10/29 17:58:32;;;;;;;21.50;12.60;;;;;;;17.57;58.58;99572.77;226718;1241;140403;-65
2022/10/29 18:03:36;;;;;;;22.20;12.50;;;;;;;17.52;58.78;99572.75;227452;1234;139517;-62
2022/10/29 18:08:41;;;;;;;22.50;13.10;;;;;;;17.49;58.75;99570.52;226384;1243;139620;-66
2022/10/29 18:13:45;;;;;;;26.00;13.40;;;;;;;17.44;58.99;99568.95;226534;1243;139677;-67
2022/10/29 18:18:50;;;;;;;80.10;54.00;;;;;;;17.43;59.05;99567.23;226284;1241;140301;-68
2022/10/29 18:24:05;;;;;;;21.10;13.70;;;;;;;17.50;59.55;99568.29;227386;1237;139569;-65
2022/10/29 18:29:10;;;;;;;20.60;13.20;;;;;;;17.51;59.47;99565.84;226123;1244;139616;-64
2022/10/29 18:34:15;;;;;;;24.20;14.50;;;;;;;17.47;59.36;99562.02;226544;1241;141274;-64
2022/10/29 18:39:18;;;;;;;27.00;15.10;;;;;;;17.43;59.42;99567.45;226732;1241;139289;-69
2022/10/29 18:44:21;;;;;;;25.20;15.00;;;;;;;17.39;59.40;99570.23;226362;1241;139753;-66
2022/10/29 18:49:26;;;;;;;21.40;14.90;;;;;;;17.34;59.47;99563.85;226275;1245;140478;-64
2022/10/29 18:54:32;;;;;;;23.80;15.90;;;;;;;17.29;59.54;99563.73;226015;1244;140477;-63
2022/10/29 18:59:35;;;;;;;25.50;15.90;;;;;;;17.24;59.70;99560.92;227236;1240;139384;-65
2022/10/29 19:04:38;;;;;;;23.10;15.80;;;;;;;17.15;59.73;99567.03;225847;1244;139480;-64
2022/10/29 19:09:41;;;;;;;29.00;14.60;;;;;;;17.08;59.74;99566.13;225890;1245;139172;-64
2022/10/29 19:14:44;;;;;;;24.00;14.60;;;;;;;17.06;59.99;99567.38;226130;1241;140029;-62
2022/10/29 19:19:47;;;;;;;116.70;84.40;;;;;;;17.04;60.14;99573.08;226052;1228;139681;-63
2022/10/29 19:25:12;;;;;;;26.20;17.30;;;;;;;17.04;60.51;99580.11;225215;1224;139735;-70
2022/10/29 19:30:16;;;;;;;24.60;16.70;;;;;;;17.00;60.31;99582.03;224476;1239;140362;-70
2022/10/29 19:35:19;;;;;;;29.30;16.50;;;;;;;16.96;60.32;99588.42;225338;1240;139366;-70
2022/10/29 19:40:21;;;;;;;26.40;16.70;;;;;;;16.94;60.54;99588.41;225023;1241;140294;-72
2022/10/29 19:45:25;;;;;;;43.70;29.60;;;;;;;16.88;60.54;99594.65;225040;1245;139885;-69
2022/10/29 19:50:28;;;;;;;26.20;17.00;;;;;;;16.78;60.53;99586.80;224966;1245;139499;-74
2022/10/29 19:55:31;;;;;;;27.60;15.30;;;;;;;16.72;60.82;99587.29;226194;1233;140297;-64
2022/10/29 20:00:38;;;;;;;23.10;15.00;;;;;;;16.73;60.92;99582.52;225749;1224;140227;31
2022/10/29 20:05:43;;;;;;;23.50;16.40;;;;;;;16.75;61.05;99580.98;226329;1238;139524;-69
2022/10/29 20:10:53;;;;;;;27.00;17.00;;;;;;;16.74;61.06;99586.71;225117;1245;140148;-68
2022/10/29 20:15:56;;;;;;;25.10;17.30;;;;;;;16.74;61.08;99583.71;226281;1237;139641;-69
2022/10/29 20:20:59;;;;;;;26.30;17.90;;;;;;;16.73;61.34;99579.68;226686;1233;139319;-67
2022/10/29 20:26:03;;;;;;;27.60;18.40;;;;;;;16.65;61.11;99588.91;226446;1244;139276;-67
2022/10/29 20:31:24;;;;;;;30.80;18.30;;;;;;;16.57;61.35;99592.02;225832;1208;139963;-77
2022/10/29 20:36:33;;;;;;;30.20;17.80;;;;;;;16.53;61.52;99589.79;225316;1244;139757;-69
2022/10/29 20:41:36;;;;;;;27.10;17.30;;;;;;;16.51;61.39;99591.57;225442;1247;139795;-66
2022/10/29 20:46:39;;;;;;;23.40;17.20;;;;;;;16.55;61.90;99594.52;225152;1248;140141;-66
2022/10/29 20:51:45;;;;;;;24.90;17.00;;;;;;;16.58;61.81;99592.33;225337;1248;139370;-77
2022/10/29 20:56:48;;;;;;;26.70;17.60;;;;;;;16.55;61.81;99593.24;225506;1245;139311;-69
2022/10/29 21:01:51;;;;;;;27.90;17.10;;;;;;;16.52;61.97;99597.02;225590;1245;138901;-72
2022/10/29 21:06:54;;;;;;;28.00;17.90;;;;;;;16.51;62.03;99598.02;226233;1230;140014;-67
2022/10/29 21:11:57;;;;;;;29.70;18.70;;;;;;;16.48;61.97;99598.60;225125;1245;140202;-66
2022/10/29 21:17:27;;;;;;;26.80;15.90;;;;;;;16.45;61.96;99595.29;226357;1236;227017;-67
2022/10/29 21:22:34;;;;;;;22.10;15.70;;;;;;;16.46;61.88;99590.88;225885;1246;141044;-71
2022/10/29 21:27:57;;;;;;;26.80;16.60;;;;;;;16.50;62.24;99582.04;225204;1218;139900;-64
2022/10/29 21:33:02;;;;;;;22.90;16.40;;;;;;;16.53;62.31;99579.09;225608;1247;139941;-68
2022/10/29 21:38:08;;;;;;;26.80;17.50;;;;;;;16.51;62.26;99577.41;225602;1238;140108;-68
2022/10/29 21:43:27;;;;;;;24.00;17.30;;;;;;;16.49;62.24;99569.20;225466;1238;139879;-71
2022/10/29 21:48:32;;;;;;;25.20;16.80;;;;;;;16.45;62.19;99555.30;225983;1237;139133;-69
2022/10/29 21:53:36;;;;;;;23.50;14.60;;;;;;;16.41;62.23;99555.27;226333;1236;139858;-77
2022/10/29 21:58:43;;;;;;;24.10;15.10;;;;;;;16.39;62.23;99557.98;225467;1241;140234;-70
2022/10/29 22:03:51;;;;;;;25.40;16.00;;;;;;;16.38;62.36;99558.00;225763;1240;140699;-72
2022/10/29 22:08:58;;;;;;;22.90;15.70;;;;;;;16.37;62.48;99554.87;226760;1237;139315;-73
2022/10/29 22:14:01;;;;;;;23.30;15.70;;;;;;;16.36;62.40;99554.60;226613;1237;139499;-69
2022/10/29 22:19:04;;;;;;;24.90;16.10;;;;;;;16.38;62.41;99549.99;225668;1242;139919;-65
2022/10/29 22:24:08;;;;;;;25.80;17.10;;;;;;;16.38;62.56;99548.17;225694;1257;141199;-70
2022/10/29 22:29:11;;;;;;;23.40;16.20;;;;;;;16.36;62.34;99538.83;225636;1242;140007;-76
2022/10/29 22:34:14;;;;;;;21.10;14.70;;;;;;;16.32;62.46;99539.10;225766;1251;139483;-69
2022/10/29 22:39:17;;;;;;;23.00;15.20;;;;;;;16.35;62.46;99534.66;225832;1237;139656;-65
2022/10/29 22:44:20;;;;;;;22.60;15.10;;;;;;;16.43;62.76;99527.95;226267;1238;139637;-72
2022/10/29 22:49:23;;;;;;;23.40;16.70;;;;;;;16.48;62.66;99518.91;226630;1238;139306;-74
2022/10/29 22:54:26;;;;;;;29.50;16.50;;;;;;;16.46;62.68;99511.57;225698;1245;139820;-66
2022/10/29 22:59:29;;;;;;;24.70;16.60;;;;;;;16.48;62.85;99511.38;225610;1241;139223;-69
2022/10/29 23:04:32;;;;;;;24.80;16.60;;;;;;;16.44;62.50;99515.31;226380;1237;139794;-70
2022/10/29 23:09:35;;;;;;;25.50;15.90;;;;;;;16.37;62.55;99504.95;225550;1248;140172;-65
2022/10/29 23:14:38;;;;;;;23.00;14.80;;;;;;;16.26;62.48;99500.92;225644;1244;139581;-71